Aeroporto :
LOGIN :

Iscrizione | Disclaimer

   EN    FR    IT 

 










Sommario :    VFR   VFR Marginale   IFR   IFR Intensivo   IFR Molto Intensivo
Visibilità : 
Base nubi : 
>= 8 km
>= 3000ft
5 / 8 km
1000 / 3000 ft
1500m / 5 km
500 / 1000 ft
800 / 1500m
200 / 500 ft
< 800m
< 200 ft
Simboli :   Temporali  Nebbia  Neve Forte  Precipitazioni Forti  Vento > 20 kt
SIGMETs :   Varie  Temporali  Ghiacco  Turbolenza  Onda orograficha  Ceneri Vulcaniche







- Altitudine del aeroporto : 247 ft
- Codice IATA : BLL


EKBI - Billund

ULTIMO METAR :
  • 231450Z AUTO 27018KT 9999 FEW040/// 09/M00 Q1027

METARs OBSOLETI :
  • 231420Z AUTO 27017KT 9999 FEW036/// 09/M01 Q1027
  • 231350Z AUTO 28016KT 9999 FEW039/// 09/M00 Q1027
  • 231320Z AUTO 28015KT 9999 BKN034/// 09/01 Q1027
  • 231250Z AUTO 28017KT 9999 SCT036/// 09/01 Q1027
  • 231220Z AUTO 28017KT 9999 SCT036/// 10/01 Q1026

TAF TAF EKBI
Valido dal 23 a 12 ore il 24 a 12 ore UTC


231113Z 2312/2412 29016KT 9999 SCT020
BECMG 2317/2319 27006KT
Nessun NOTAM noto per questo aeroporto.



MetMap, La meteo Aeronautica in un colpo d'occhio ! - Copyright ORBIFLY Dicembre 2007 - Disclaimer

ORBIFLY MET'MAP TEAM :

Programmazione e sviluppo : Alexandra Zaïnal
Concezione e sviluppo : Baudouin d'Aumeries
Co-Programmazione e sviluppo : Marc-Olivier Méhu
Supporto tecnico e logistico : Manuel Goepfert
Aiuto per la traduzione : Arnaldo La Scala

Contatto : metmap@orbifly.com




FONTI E CREDITI :

   NOAA